sensor_id;sensor_type;location;lat;lon;timestamp;pressure;altitude;pressure_sealevel;temperature;humidity
68169;BME280;54981;50.206;15.978;2022-10-26T00:01:20;99187.25;;;7.19;100.00
68169;BME280;54981;50.206;15.978;2022-10-26T00:03:45;99193.41;;;7.20;100.00
68169;BME280;54981;50.206;15.978;2022-10-26T00:08:41;99189.94;;;7.18;100.00
68169;BME280;54981;50.206;15.978;2022-10-26T00:11:07;99183.97;;;7.13;100.00
68169;BME280;54981;50.206;15.978;2022-10-26T00:13:33;99195.28;;;7.16;100.00
68169;BME280;54981;50.206;15.978;2022-10-26T00:15:59;99195.22;;;7.18;100.00
68169;BME280;54981;50.206;15.978;2022-10-26T00:18:24;99195.66;;;7.07;100.00
68169;BME280;54981;50.206;15.978;2022-10-26T00:20:50;99194.88;;;7.03;100.00
68169;BME280;54981;50.206;15.978;2022-10-26T00:23:15;99194.19;;;6.98;100.00
68169;BME280;54981;50.206;15.978;2022-10-26T00:25:40;99185.31;;;6.99;100.00
68169;BME280;54981;50.206;15.978;2022-10-26T00:28:06;99187.16;;;6.97;100.00
68169;BME280;54981;50.206;15.978;2022-10-26T00:30:31;99185.97;;;7.06;100.00
68169;BME280;54981;50.206;15.978;2022-10-26T00:32:56;99198.22;;;7.09;100.00
68169;BME280;54981;50.206;15.978;2022-10-26T00:35:22;99192.09;;;7.07;100.00
68169;BME280;54981;50.206;15.978;2022-10-26T00:37:47;99190.44;;;7.04;100.00
68169;BME280;54981;50.206;15.978;2022-10-26T00:40:12;99192.44;;;6.97;100.00
68169;BME280;54981;50.206;15.978;2022-10-26T00:42:38;99199.69;;;6.92;100.00
68169;BME280;54981;50.206;15.978;2022-10-26T00:45:14;99195.28;;;6.93;100.00
68169;BME280;54981;50.206;15.978;2022-10-26T00:47:52;99195.16;;;6.96;100.00
68169;BME280;54981;50.206;15.978;2022-10-26T00:50:29;99202.16;;;6.97;100.00
68169;BME280;54981;50.206;15.978;2022-10-26T00:52:57;99193.25;;;6.99;100.00
68169;BME280;54981;50.206;15.978;2022-10-26T00:55:26;99194.50;;;6.89;100.00
68169;BME280;54981;50.206;15.978;2022-10-26T00:57:53;99192.56;;;6.94;100.00
68169;BME280;54981;50.206;15.978;2022-10-26T01:00:19;99188.09;;;6.96;100.00
68169;BME280;54981;50.206;15.978;2022-10-26T01:02:46;99189.41;;;6.83;100.00
68169;BME280;54981;50.206;15.978;2022-10-26T01:05:16;99189.78;;;6.74;100.00
68169;BME280;54981;50.206;15.978;2022-10-26T01:07:42;99188.00;;;6.74;100.00
68169;BME280;54981;50.206;15.978;2022-10-26T01:10:08;99192.47;;;6.72;100.00
68169;BME280;54981;50.206;15.978;2022-10-26T01:12:34;99187.34;;;6.68;100.00
68169;BME280;54981;50.206;15.978;2022-10-26T01:14:59;99197.91;;;6.68;100.00
68169;BME280;54981;50.206;15.978;2022-10-26T01:20:12;99198.84;;;6.67;100.00
68169;BME280;54981;50.206;15.978;2022-10-26T01:22:53;99200.69;;;6.65;100.00
68169;BME280;54981;50.206;15.978;2022-10-26T01:25:38;99195.50;;;6.61;100.00
68169;BME280;54981;50.206;15.978;2022-10-26T01:28:36;99195.81;;;6.52;100.00
68169;BME280;54981;50.206;15.978;2022-10-26T01:31:10;99205.63;;;6.49;100.00
68169;BME280;54981;50.206;15.978;2022-10-26T01:33:47;99197.53;;;6.53;100.00
68169;BME280;54981;50.206;15.978;2022-10-26T01:36:22;99200.34;;;6.49;100.00
68169;BME280;54981;50.206;15.978;2022-10-26T01:41:49;99194.16;;;6.50;100.00
68169;BME280;54981;50.206;15.978;2022-10-26T01:44:50;99193.06;;;6.55;100.00
68169;BME280;54981;50.206;15.978;2022-10-26T01:47:14;99189.91;;;6.44;100.00
68169;BME280;54981;50.206;15.978;2022-10-26T01:49:44;99181.97;;;6.44;100.00
68169;BME280;54981;50.206;15.978;2022-10-26T01:52:11;99182.09;;;6.41;100.00
68169;BME280;54981;50.206;15.978;2022-10-26T01:54:36;99178.50;;;6.42;100.00
68169;BME280;54981;50.206;15.978;2022-10-26T01:57:04;99180.44;;;6.37;100.00
68169;BME280;54981;50.206;15.978;2022-10-26T02:02:47;99174.59;;;6.27;100.00
68169;BME280;54981;50.206;15.978;2022-10-26T02:05:31;99171.97;;;6.27;100.00
68169;BME280;54981;50.206;15.978;2022-10-26T02:13:15;99177.22;;;6.29;100.00
68169;BME280;54981;50.206;15.978;2022-10-26T02:18:32;99181.53;;;6.31;100.00
68169;BME280;54981;50.206;15.978;2022-10-26T02:21:05;99186.88;;;6.30;100.00
68169;BME280;54981;50.206;15.978;2022-10-26T02:23:34;99181.69;;;6.27;100.00
68169;BME280;54981;50.206;15.978;2022-10-26T02:26:04;99176.69;;;6.17;100.00
68169;BME280;54981;50.206;15.978;2022-10-26T02:28:36;99183.03;;;6.13;100.00
68169;BME280;54981;50.206;15.978;2022-10-26T02:31:04;99175.81;;;6.18;100.00
68169;BME280;54981;50.206;15.978;2022-10-26T02:33:34;99175.66;;;6.23;100.00
68169;BME280;54981;50.206;15.978;2022-10-26T02:36:03;99171.22;;;6.24;100.00
68169;BME280;54981;50.206;15.978;2022-10-26T02:38:32;99174.59;;;6.27;100.00
68169;BME280;54981;50.206;15.978;2022-10-26T02:40:59;99175.50;;;6.28;100.00
68169;BME280;54981;50.206;15.978;2022-10-26T02:43:26;99174.69;;;6.26;100.00
68169;BME280;54981;50.206;15.978;2022-10-26T02:45:56;99172.84;;;6.28;100.00
68169;BME280;54981;50.206;15.978;2022-10-26T02:48:23;99174.56;;;6.29;100.00
68169;BME280;54981;50.206;15.978;2022-10-26T02:51:02;99179.03;;;6.27;100.00
68169;BME280;54981;50.206;15.978;2022-10-26T02:56:17;99186.22;;;6.23;100.00
68169;BME280;54981;50.206;15.978;2022-10-26T02:58:48;99185.31;;;6.24;100.00
68169;BME280;54981;50.206;15.978;2022-10-26T03:01:16;99182.91;;;6.16;100.00
68169;BME280;54981;50.206;15.978;2022-10-26T03:03:41;99188.25;;;6.15;100.00
68169;BME280;54981;50.206;15.978;2022-10-26T03:06:07;99185.00;;;6.07;100.00
68169;BME280;54981;50.206;15.978;2022-10-26T03:08:32;99192.97;;;6.05;100.00
68169;BME280;54981;50.206;15.978;2022-10-26T03:10:57;99190.63;;;5.96;100.00
68169;BME280;54981;50.206;15.978;2022-10-26T03:13:23;99194.09;;;5.98;100.00
68169;BME280;54981;50.206;15.978;2022-10-26T03:15:48;99196.56;;;6.03;100.00
68169;BME280;54981;50.206;15.978;2022-10-26T03:18:13;99200.00;;;6.06;100.00
68169;BME280;54981;50.206;15.978;2022-10-26T03:20:39;99187.66;;;6.07;100.00
68169;BME280;54981;50.206;15.978;2022-10-26T03:23:04;99195.16;;;5.91;100.00
68169;BME280;54981;50.206;15.978;2022-10-26T03:25:29;99193.53;;;5.87;100.00
68169;BME280;54981;50.206;15.978;2022-10-26T03:28:02;99185.69;;;5.84;100.00
68169;BME280;54981;50.206;15.978;2022-10-26T03:30:28;99185.56;;;5.88;100.00
68169;BME280;54981;50.206;15.978;2022-10-26T03:32:54;99187.34;;;5.88;100.00
68169;BME280;54981;50.206;15.978;2022-10-26T03:35:20;99189.06;;;5.89;100.00
68169;BME280;54981;50.206;15.978;2022-10-26T03:37:45;99192.47;;;5.92;100.00
68169;BME280;54981;50.206;15.978;2022-10-26T03:40:11;99192.38;;;5.97;100.00
68169;BME280;54981;50.206;15.978;2022-10-26T03:42:37;99195.97;;;5.93;100.00
68169;BME280;54981;50.206;15.978;2022-10-26T03:45:04;99200.19;;;6.00;100.00
68169;BME280;54981;50.206;15.978;2022-10-26T03:47:29;99199.19;;;6.04;100.00
68169;BME280;54981;50.206;15.978;2022-10-26T03:49:57;99201.16;;;5.97;100.00
68169;BME280;54981;50.206;15.978;2022-10-26T03:52:23;99196.63;;;6.01;100.00
68169;BME280;54981;50.206;15.978;2022-10-26T03:54:49;99194.19;;;5.95;100.00
68169;BME280;54981;50.206;15.978;2022-10-26T03:57:15;99199.38;;;5.98;100.00
68169;BME280;54981;50.206;15.978;2022-10-26T03:59:41;99197.66;;;5.97;100.00
68169;BME280;54981;50.206;15.978;2022-10-26T04:02:06;99198.66;;;5.91;100.00
68169;BME280;54981;50.206;15.978;2022-10-26T04:04:31;99203.19;;;5.88;100.00
68169;BME280;54981;50.206;15.978;2022-10-26T04:06:57;99205.94;;;5.85;100.00
68169;BME280;54981;50.206;15.978;2022-10-26T04:09:22;99199.56;;;5.92;100.00
68169;BME280;54981;50.206;15.978;2022-10-26T04:11:47;99209.31;;;5.90;100.00
68169;BME280;54981;50.206;15.978;2022-10-26T04:14:13;99211.31;;;5.82;100.00
68169;BME280;54981;50.206;15.978;2022-10-26T04:16:38;99207.09;;;5.76;100.00
68169;BME280;54981;50.206;15.978;2022-10-26T04:19:04;99207.94;;;5.76;100.00
68169;BME280;54981;50.206;15.978;2022-10-26T04:21:29;99203.44;;;5.80;100.00
68169;BME280;54981;50.206;15.978;2022-10-26T04:23:56;99207.75;;;5.83;100.00
68169;BME280;54981;50.206;15.978;2022-10-26T04:26:22;99201.09;;;5.71;100.00
68169;BME280;54981;50.206;15.978;2022-10-26T04:28:47;99202.31;;;5.59;100.00
68169;BME280;54981;50.206;15.978;2022-10-26T04:31:13;99201.50;;;5.57;100.00
68169;BME280;54981;50.206;15.978;2022-10-26T04:33:38;99199.94;;;5.50;100.00
68169;BME280;54981;50.206;15.978;2022-10-26T04:36:03;99203.59;;;5.46;100.00
68169;BME280;54981;50.206;15.978;2022-10-26T04:38:29;99201.75;;;5.49;100.00
68169;BME280;54981;50.206;15.978;2022-10-26T04:40:54;99200.81;;;5.50;100.00
68169;BME280;54981;50.206;15.978;2022-10-26T04:43:19;99201.63;;;5.52;100.00
68169;BME280;54981;50.206;15.978;2022-10-26T04:45:45;99205.47;;;5.42;100.00
68169;BME280;54981;50.206;15.978;2022-10-26T04:48:11;99204.78;;;5.36;100.00
68169;BME280;54981;50.206;15.978;2022-10-26T04:50:37;99209.31;;;5.32;100.00
68169;BME280;54981;50.206;15.978;2022-10-26T04:53:04;99210.31;;;5.26;100.00
68169;BME280;54981;50.206;15.978;2022-10-26T04:55:29;99208.50;;;5.28;100.00
68169;BME280;54981;50.206;15.978;2022-10-26T04:57:55;99217.88;;;5.39;100.00
68169;BME280;54981;50.206;15.978;2022-10-26T05:00:20;99209.97;;;5.39;100.00
68169;BME280;54981;50.206;15.978;2022-10-26T05:02:46;99207.28;;;5.40;100.00
68169;BME280;54981;50.206;15.978;2022-10-26T05:05:11;99205.63;;;5.36;100.00
68169;BME280;54981;50.206;15.978;2022-10-26T05:07:36;99206.53;;;5.37;100.00
68169;BME280;54981;50.206;15.978;2022-10-26T05:10:02;99208.25;;;5.38;100.00
68169;BME280;54981;50.206;15.978;2022-10-26T05:12:28;99213.66;;;5.33;100.00
68169;BME280;54981;50.206;15.978;2022-10-26T05:14:53;99210.88;;;5.38;100.00
68169;BME280;54981;50.206;15.978;2022-10-26T05:17:23;99214.34;;;5.40;100.00
68169;BME280;54981;50.206;15.978;2022-10-26T05:19:49;99221.22;;;5.45;100.00
68169;BME280;54981;50.206;15.978;2022-10-26T05:22:19;99215.91;;;5.47;100.00
68169;BME280;54981;50.206;15.978;2022-10-26T05:24:45;99220.63;;;5.36;100.00
68169;BME280;54981;50.206;15.978;2022-10-26T05:27:10;99223.97;;;5.11;100.00
68169;BME280;54981;50.206;15.978;2022-10-26T05:29:35;99212.91;;;4.98;100.00
68169;BME280;54981;50.206;15.978;2022-10-26T05:32:01;99212.97;;;4.95;100.00
68169;BME280;54981;50.206;15.978;2022-10-26T05:34:26;99209.38;;;4.98;100.00
68169;BME280;54981;50.206;15.978;2022-10-26T05:36:52;99210.28;;;4.98;100.00
68169;BME280;54981;50.206;15.978;2022-10-26T05:39:17;99215.94;;;4.83;100.00
68169;BME280;54981;50.206;15.978;2022-10-26T05:41:43;99220.22;;;4.88;100.00
68169;BME280;54981;50.206;15.978;2022-10-26T05:44:08;99234.06;;;4.97;100.00
68169;BME280;54981;50.206;15.978;2022-10-26T05:46:33;99228.88;;;4.94;100.00
68169;BME280;54981;50.206;15.978;2022-10-26T05:48:59;99227.94;;;4.95;100.00
68169;BME280;54981;50.206;15.978;2022-10-26T05:51:24;99235.69;;;5.01;100.00
68169;BME280;54981;50.206;15.978;2022-10-26T05:53:50;99237.28;;;5.08;100.00
68169;BME280;54981;50.206;15.978;2022-10-26T05:56:20;99241.53;;;5.12;100.00
68169;BME280;54981;50.206;15.978;2022-10-26T05:58:57;99242.44;;;5.11;100.00
68169;BME280;54981;50.206;15.978;2022-10-26T06:06:46;99257.47;;;5.09;100.00
68169;BME280;54981;50.206;15.978;2022-10-26T06:09:16;99261.16;;;5.03;100.00
68169;BME280;54981;50.206;15.978;2022-10-26T06:11:42;99253.59;;;4.89;100.00
68169;BME280;54981;50.206;15.978;2022-10-26T06:14:08;99259.47;;;5.01;100.00
68169;BME280;54981;50.206;15.978;2022-10-26T06:21:40;99253.63;;;5.21;100.00
68169;BME280;54981;50.206;15.978;2022-10-26T06:29:43;99254.31;;;5.27;100.00
68169;BME280;54981;50.206;15.978;2022-10-26T06:32:14;99257.66;;;5.34;100.00
68169;BME280;54981;50.206;15.978;2022-10-26T06:34:45;99251.34;;;5.38;100.00
68169;BME280;54981;50.206;15.978;2022-10-26T06:37:13;99252.00;;;5.46;100.00
68169;BME280;54981;50.206;15.978;2022-10-26T06:39:42;99252.63;;;5.54;100.00
68169;BME280;54981;50.206;15.978;2022-10-26T06:42:09;99259.22;;;5.69;100.00
68169;BME280;54981;50.206;15.978;2022-10-26T06:44:36;99252.47;;;5.89;100.00
68169;BME280;54981;50.206;15.978;2022-10-26T06:47:20;99256.44;;;6.04;100.00
68169;BME280;54981;50.206;15.978;2022-10-26T06:50:02;99256.84;;;6.19;100.00
68169;BME280;54981;50.206;15.978;2022-10-26T06:52:40;99253.88;;;6.30;100.00
68169;BME280;54981;50.206;15.978;2022-10-26T06:55:14;99260.56;;;6.40;100.00
68169;BME280;54981;50.206;15.978;2022-10-26T06:57:41;99254.91;;;6.51;100.00
68169;BME280;54981;50.206;15.978;2022-10-26T07:00:20;99251.09;;;6.60;100.00
68169;BME280;54981;50.206;15.978;2022-10-26T07:02:45;99255.00;;;6.75;100.00
68169;BME280;54981;50.206;15.978;2022-10-26T07:05:12;99260.69;;;6.89;100.00
68169;BME280;54981;50.206;15.978;2022-10-26T07:07:45;99260.75;;;7.13;100.00
68169;BME280;54981;50.206;15.978;2022-10-26T07:10:12;99262.00;;;7.26;100.00
68169;BME280;54981;50.206;15.978;2022-10-26T07:12:39;99267.28;;;7.51;100.00
68169;BME280;54981;50.206;15.978;2022-10-26T07:15:05;99266.34;;;7.76;100.00
68169;BME280;54981;50.206;15.978;2022-10-26T07:17:42;99265.47;;;7.99;100.00
68169;BME280;54981;50.206;15.978;2022-10-26T07:20:08;99258.19;;;8.04;100.00
68169;BME280;54981;50.206;15.978;2022-10-26T07:22:33;99272.47;;;8.23;100.00
68169;BME280;54981;50.206;15.978;2022-10-26T07:24:59;99276.13;;;8.43;100.00
68169;BME280;54981;50.206;15.978;2022-10-26T07:27:24;99276.06;;;8.44;100.00
68169;BME280;54981;50.206;15.978;2022-10-26T07:29:49;99270.06;;;8.61;100.00
68169;BME280;54981;50.206;15.978;2022-10-26T07:32:15;99275.56;;;8.57;100.00
68169;BME280;54981;50.206;15.978;2022-10-26T07:34:40;99281.84;;;8.54;100.00
68169;BME280;54981;50.206;15.978;2022-10-26T07:37:05;99285.19;;;8.59;100.00
68169;BME280;54981;50.206;15.978;2022-10-26T07:39:31;99282.22;;;8.45;100.00
68169;BME280;54981;50.206;15.978;2022-10-26T07:41:57;99279.06;;;8.57;100.00
68169;BME280;54981;50.206;15.978;2022-10-26T07:44:22;99286.22;;;8.55;100.00
68169;BME280;54981;50.206;15.978;2022-10-26T07:46:47;99286.84;;;8.62;100.00
68169;BME280;54981;50.206;15.978;2022-10-26T07:49:13;99282.22;;;8.67;100.00
68169;BME280;54981;50.206;15.978;2022-10-26T07:51:38;99280.47;;;8.66;100.00
68169;BME280;54981;50.206;15.978;2022-10-26T07:54:06;99277.88;;;8.64;100.00
68169;BME280;54981;50.206;15.978;2022-10-26T07:56:32;99287.31;;;8.71;100.00
68169;BME280;54981;50.206;15.978;2022-10-26T07:58:57;99288.84;;;8.77;100.00
68169;BME280;54981;50.206;15.978;2022-10-26T08:01:23;99286.13;;;8.79;100.00
68169;BME280;54981;50.206;15.978;2022-10-26T08:03:52;99285.88;;;8.85;100.00
68169;BME280;54981;50.206;15.978;2022-10-26T08:06:18;99280.69;;;8.82;100.00
68169;BME280;54981;50.206;15.978;2022-10-26T08:08:43;99286.03;;;9.02;100.00
68169;BME280;54981;50.206;15.978;2022-10-26T08:11:08;99277.13;;;9.24;100.00
68169;BME280;54981;50.206;15.978;2022-10-26T08:13:34;99284.06;;;9.47;100.00
68169;BME280;54981;50.206;15.978;2022-10-26T08:16:02;99279.41;;;9.71;100.00
68169;BME280;54981;50.206;15.978;2022-10-26T08:18:27;99275.19;;;9.86;100.00
68169;BME280;54981;50.206;15.978;2022-10-26T08:20:53;99279.28;;;10.12;100.00
68169;BME280;54981;50.206;15.978;2022-10-26T08:23:19;99284.34;;;10.37;100.00
68169;BME280;54981;50.206;15.978;2022-10-26T08:25:44;99281.47;;;10.59;100.00
68169;BME280;54981;50.206;15.978;2022-10-26T08:28:09;99280.84;;;10.54;100.00
68169;BME280;54981;50.206;15.978;2022-10-26T08:30:35;99285.16;;;10.56;100.00
68169;BME280;54981;50.206;15.978;2022-10-26T08:33:05;99281.72;;;10.72;100.00
68169;BME280;54981;50.206;15.978;2022-10-26T08:35:32;99283.28;;;11.11;100.00
68169;BME280;54981;50.206;15.978;2022-10-26T08:37:58;99289.47;;;10.94;100.00
68169;BME280;54981;50.206;15.978;2022-10-26T08:40:31;99288.34;;;10.63;100.00
68169;BME280;54981;50.206;15.978;2022-10-26T08:43:02;99287.09;;;10.53;100.00
68169;BME280;54981;50.206;15.978;2022-10-26T08:45:32;99285.97;;;10.39;100.00
68169;BME280;54981;50.206;15.978;2022-10-26T08:48:03;99285.28;;;10.53;100.00
68169;BME280;54981;50.206;15.978;2022-10-26T08:50:33;99283.75;;;10.66;100.00
68169;BME280;54981;50.206;15.978;2022-10-26T08:55:46;99284.47;;;11.05;100.00
68169;BME280;54981;50.206;15.978;2022-10-26T08:58:17;99285.41;;;11.21;100.00
68169;BME280;54981;50.206;15.978;2022-10-26T09:00:46;99285.44;;;11.37;100.00
68169;BME280;54981;50.206;15.978;2022-10-26T09:03:13;99287.09;;;11.40;100.00
68169;BME280;54981;50.206;15.978;2022-10-26T09:06:09;99293.16;;;11.59;100.00
68169;BME280;54981;50.206;15.978;2022-10-26T09:16:40;99289.75;;;12.38;100.00
68169;BME280;54981;50.206;15.978;2022-10-26T09:19:26;99287.09;;;12.84;100.00
68169;BME280;54981;50.206;15.978;2022-10-26T09:22:06;99292.56;;;12.67;100.00
68169;BME280;54981;50.206;15.978;2022-10-26T09:24:53;99287.91;;;13.00;100.00
68169;BME280;54981;50.206;15.978;2022-10-26T09:27:27;99285.44;;;13.28;100.00
68169;BME280;54981;50.206;15.978;2022-10-26T09:29:55;99297.97;;;13.70;100.00
68169;BME280;54981;50.206;15.978;2022-10-26T09:32:34;99293.75;;;14.09;97.12
68169;BME280;54981;50.206;15.978;2022-10-26T09:35:04;99297.34;;;14.37;94.70
68169;BME280;54981;50.206;15.978;2022-10-26T09:37:37;99295.47;;;14.52;94.46
68169;BME280;54981;50.206;15.978;2022-10-26T09:40:17;99302.16;;;14.86;92.54
68169;BME280;54981;50.206;15.978;2022-10-26T09:42:54;99299.41;;;15.00;90.85
68169;BME280;54981;50.206;15.978;2022-10-26T09:45:38;99301.97;;;14.89;91.07
68169;BME280;54981;50.206;15.978;2022-10-26T09:48:17;99300.88;;;15.31;89.34
68169;BME280;54981;50.206;15.978;2022-10-26T09:50:46;99304.00;;;15.38;89.34
68169;BME280;54981;50.206;15.978;2022-10-26T09:53:12;99302.41;;;15.61;88.25
68169;BME280;54981;50.206;15.978;2022-10-26T09:55:46;99314.50;;;15.41;87.50
68169;BME280;54981;50.206;15.978;2022-10-26T09:58:16;99300.84;;;15.06;91.74
68169;BME280;54981;50.206;15.978;2022-10-26T10:00:44;99302.53;;;15.07;92.08
68169;BME280;54981;50.206;15.978;2022-10-26T10:03:24;99313.91;;;15.76;89.02
68169;BME280;54981;50.206;15.978;2022-10-26T10:05:50;99312.59;;;15.43;89.84
68169;BME280;54981;50.206;15.978;2022-10-26T10:08:20;99304.44;;;15.58;90.04
68169;BME280;54981;50.206;15.978;2022-10-26T10:11:18;99309.81;;;16.46;86.28
68169;BME280;54981;50.206;15.978;2022-10-26T10:13:44;99312.38;;;16.84;81.83
68169;BME280;54981;50.206;15.978;2022-10-26T10:16:20;99312.03;;;16.89;81.63
68169;BME280;54981;50.206;15.978;2022-10-26T10:18:56;99311.22;;;16.99;80.41
68169;BME280;54981;50.206;15.978;2022-10-26T10:21:36;99309.13;;;17.27;80.78
68169;BME280;54981;50.206;15.978;2022-10-26T10:24:21;99308.00;;;17.18;80.00
68169;BME280;54981;50.206;15.978;2022-10-26T10:26:58;99309.28;;;17.48;80.23
68169;BME280;54981;50.206;15.978;2022-10-26T10:29:25;99311.81;;;16.18;87.47
68169;BME280;54981;50.206;15.978;2022-10-26T10:31:56;99304.34;;;15.72;91.57
68169;BME280;54981;50.206;15.978;2022-10-26T10:34:22;99296.47;;;15.43;90.22
68169;BME280;54981;50.206;15.978;2022-10-26T10:36:48;99297.69;;;15.52;91.60
68169;BME280;54981;50.206;15.978;2022-10-26T10:39:32;99295.94;;;15.38;92.09
68169;BME280;54981;50.206;15.978;2022-10-26T10:41:59;99294.66;;;15.31;93.85
68169;BME280;54981;50.206;15.978;2022-10-26T10:44:29;99289.72;;;15.63;92.50
68169;BME280;54981;50.206;15.978;2022-10-26T10:47:01;99297.78;;;15.38;94.83
68169;BME280;54981;50.206;15.978;2022-10-26T10:49:28;99293.16;;;15.52;94.56
68169;BME280;54981;50.206;15.978;2022-10-26T10:51:55;99281.78;;;15.36;94.20
68169;BME280;54981;50.206;15.978;2022-10-26T10:54:29;99294.03;;;15.66;93.66
68169;BME280;54981;50.206;15.978;2022-10-26T10:57:35;99291.13;;;15.69;91.04
68169;BME280;54981;50.206;15.978;2022-10-26T11:00:05;99293.81;;;15.69;91.56
68169;BME280;54981;50.206;15.978;2022-10-26T11:05:46;99300.19;;;15.81;88.67
68169;BME280;54981;50.206;15.978;2022-10-26T11:08:39;99288.66;;;15.91;89.06
68169;BME280;54981;50.206;15.978;2022-10-26T11:11:17;99285.50;;;16.10;87.13
68169;BME280;54981;50.206;15.978;2022-10-26T11:14:04;99291.44;;;16.03;88.11
68169;BME280;54981;50.206;15.978;2022-10-26T11:16:43;99281.81;;;16.24;88.68
68169;BME280;54981;50.206;15.978;2022-10-26T11:21:47;99280.13;;;16.47;86.93
68169;BME280;54981;50.206;15.978;2022-10-26T11:24:29;99284.41;;;16.87;84.64
68169;BME280;54981;50.206;15.978;2022-10-26T11:27:12;99281.19;;;16.57;83.73
68169;BME280;54981;50.206;15.978;2022-10-26T11:30:01;99278.94;;;16.51;86.27
68169;BME280;54981;50.206;15.978;2022-10-26T11:32:33;99276.72;;;16.45;84.02
68169;BME280;54981;50.206;15.978;2022-10-26T11:35:19;99281.84;;;16.72;82.74
68169;BME280;54981;50.206;15.978;2022-10-26T11:37:51;99274.91;;;17.05;82.39
68169;BME280;54981;50.206;15.978;2022-10-26T11:41:09;99271.38;;;17.51;80.47
68169;BME280;54981;50.206;15.978;2022-10-26T11:43:34;99268.91;;;17.59;79.57
68169;BME280;54981;50.206;15.978;2022-10-26T11:46:06;99272.88;;;17.89;79.15
68169;BME280;54981;50.206;15.978;2022-10-26T11:48:39;99273.38;;;17.83;79.83
68169;BME280;54981;50.206;15.978;2022-10-26T11:51:16;99266.28;;;17.93;79.21
68169;BME280;54981;50.206;15.978;2022-10-26T11:53:46;99276.59;;;17.30;80.83
68169;BME280;54981;50.206;15.978;2022-10-26T11:56:32;99279.78;;;17.00;81.79
68169;BME280;54981;50.206;15.978;2022-10-26T11:59:00;99270.47;;;16.93;81.51
68169;BME280;54981;50.206;15.978;2022-10-26T12:01:27;99264.13;;;16.94;82.13
68169;BME280;54981;50.206;15.978;2022-10-26T12:03:55;99271.41;;;16.80;84.33
68169;BME280;54981;50.206;15.978;2022-10-26T12:06:24;99273.31;;;16.54;86.10
68169;BME280;54981;50.206;15.978;2022-10-26T12:09:00;99268.19;;;16.51;85.85
68169;BME280;54981;50.206;15.978;2022-10-26T12:14:26;99269.56;;;16.20;88.46
68169;BME280;54981;50.206;15.978;2022-10-26T12:19:48;99268.72;;;16.19;86.50
68169;BME280;54981;50.206;15.978;2022-10-26T12:22:13;99267.47;;;16.12;88.16
68169;BME280;54981;50.206;15.978;2022-10-26T12:24:45;99270.13;;;16.12;92.39
68169;BME280;54981;50.206;15.978;2022-10-26T12:27:52;99278.84;;;16.03;95.56
68169;BME280;54981;50.206;15.978;2022-10-26T12:35:31;99280.03;;;15.99;95.39
68169;BME280;54981;50.206;15.978;2022-10-26T12:37:58;99283.19;;;15.93;97.73
68169;BME280;54981;50.206;15.978;2022-10-26T12:40:40;99279.84;;;15.89;94.60
68169;BME280;54981;50.206;15.978;2022-10-26T12:45:40;99287.69;;;15.80;96.54
68169;BME280;54981;50.206;15.978;2022-10-26T12:48:39;99286.75;;;15.81;94.93
68169;BME280;54981;50.206;15.978;2022-10-26T12:54:03;99290.06;;;15.84;91.27
68169;BME280;54981;50.206;15.978;2022-10-26T12:56:47;99289.84;;;15.87;92.54
68169;BME280;54981;50.206;15.978;2022-10-26T12:59:36;99293.50;;;15.86;94.49
68169;BME280;54981;50.206;15.978;2022-10-26T13:05:28;99281.47;;;15.79;94.50
68169;BME280;54981;50.206;15.978;2022-10-26T13:08:02;99281.81;;;15.74;93.88
68169;BME280;54981;50.206;15.978;2022-10-26T13:10:28;99285.56;;;15.72;96.03
68169;BME280;54981;50.206;15.978;2022-10-26T13:12:56;99274.06;;;15.70;95.66
68169;BME280;54981;50.206;15.978;2022-10-26T13:15:52;99269.56;;;15.70;97.85
68169;BME280;54981;50.206;15.978;2022-10-26T13:18:19;99268.28;;;15.76;99.47
68169;BME280;54981;50.206;15.978;2022-10-26T13:23:38;99264.19;;;15.83;95.36
68169;BME280;54981;50.206;15.978;2022-10-26T13:28:41;99247.28;;;15.94;95.29
68169;BME280;54981;50.206;15.978;2022-10-26T13:33:40;99248.00;;;16.09;93.23
68169;BME280;54981;50.206;15.978;2022-10-26T13:36:39;99245.22;;;16.10;91.03
68169;BME280;54981;50.206;15.978;2022-10-26T13:39:13;99252.66;;;16.07;92.40
68169;BME280;54981;50.206;15.978;2022-10-26T13:41:44;99259.63;;;16.09;91.60
68169;BME280;54981;50.206;15.978;2022-10-26T13:44:21;99258.75;;;16.09;89.65
68169;BME280;54981;50.206;15.978;2022-10-26T13:46:51;99260.00;;;16.16;89.49
68169;BME280;54981;50.206;15.978;2022-10-26T13:49:26;99259.81;;;16.19;90.57
68169;BME280;54981;50.206;15.978;2022-10-26T13:51:53;99261.97;;;16.14;89.24
68169;BME280;54981;50.206;15.978;2022-10-26T13:54:49;99263.25;;;16.08;89.55
68169;BME280;54981;50.206;15.978;2022-10-26T13:57:35;99263.25;;;16.08;89.98
68169;BME280;54981;50.206;15.978;2022-10-26T14:02:41;99274.13;;;16.07;92.31
68169;BME280;54981;50.206;15.978;2022-10-26T14:05:09;99275.31;;;16.03;91.86
68169;BME280;54981;50.206;15.978;2022-10-26T14:07:51;99273.59;;;16.02;94.14
68169;BME280;54981;50.206;15.978;2022-10-26T14:10:27;99271.78;;;16.02;93.73
68169;BME280;54981;50.206;15.978;2022-10-26T14:12:53;99273.59;;;16.02;94.57
68169;BME280;54981;50.206;15.978;2022-10-26T14:15:23;99282.53;;;16.02;92.16
68169;BME280;54981;50.206;15.978;2022-10-26T14:17:51;99282.19;;;16.07;92.25
68169;BME280;54981;50.206;15.978;2022-10-26T14:20:18;99282.19;;;16.07;90.82
68169;BME280;54981;50.206;15.978;2022-10-26T14:22:45;99278.00;;;16.03;94.16
68169;BME280;54981;50.206;15.978;2022-10-26T14:25:27;99281.66;;;16.02;92.52
68169;BME280;54981;50.206;15.978;2022-10-26T14:27:53;99284.78;;;15.95;94.47
68169;BME280;54981;50.206;15.978;2022-10-26T14:30:29;99277.91;;;15.91;93.23
68169;BME280;54981;50.206;15.978;2022-10-26T14:32:55;99279.84;;;15.89;92.03